sensor_id;sensor_type;location;lat;lon;timestamp;P1;durP1;ratioP1;P2;durP2;ratioP2
19687;SDS011;9993;52.008;4.732;2022-10-28T00:01:08;15.82;;;10.30;;
19687;SDS011;9993;52.008;4.732;2022-10-28T00:03:36;14.75;;;8.85;;
19687;SDS011;9993;52.008;4.732;2022-10-28T00:06:02;14.18;;;9.23;;
19687;SDS011;9993;52.008;4.732;2022-10-28T00:08:27;15.65;;;9.25;;
19687;SDS011;9993;52.008;4.732;2022-10-28T00:10:59;16.38;;;8.95;;
19687;SDS011;9993;52.008;4.732;2022-10-28T00:13:25;16.90;;;8.57;;
19687;SDS011;9993;52.008;4.732;2022-10-28T00:15:50;14.13;;;9.30;;
19687;SDS011;9993;52.008;4.732;2022-10-28T00:18:15;14.15;;;9.40;;
19687;SDS011;9993;52.008;4.732;2022-10-28T00:20:40;17.70;;;10.13;;
19687;SDS011;9993;52.008;4.732;2022-10-28T00:23:05;15.75;;;9.77;;
19687;SDS011;9993;52.008;4.732;2022-10-28T00:25:31;15.68;;;9.63;;
19687;SDS011;9993;52.008;4.732;2022-10-28T00:27:56;15.20;;;10.23;;
19687;SDS011;9993;52.008;4.732;2022-10-28T00:30:21;17.77;;;9.60;;
19687;SDS011;9993;52.008;4.732;2022-10-28T00:32:46;15.13;;;9.40;;
19687;SDS011;9993;52.008;4.732;2022-10-28T00:35:11;15.02;;;9.13;;
19687;SDS011;9993;52.008;4.732;2022-10-28T00:37:37;15.00;;;9.13;;
19687;SDS011;9993;52.008;4.732;2022-10-28T00:40:02;17.27;;;10.23;;
19687;SDS011;9993;52.008;4.732;2022-10-28T00:42:27;15.65;;;9.60;;
19687;SDS011;9993;52.008;4.732;2022-10-28T00:50:09;17.52;;;12.23;;
19687;SDS011;9993;52.008;4.732;2022-10-28T00:52:36;16.08;;;10.30;;
19687;SDS011;9993;52.008;4.732;2022-10-28T00:55:02;17.27;;;9.82;;
19687;SDS011;9993;52.008;4.732;2022-10-28T00:57:29;16.38;;;10.18;;
19687;SDS011;9993;52.008;4.732;2022-10-28T00:59:55;16.42;;;9.38;;
19687;SDS011;9993;52.008;4.732;2022-10-28T01:02:21;16.23;;;9.13;;
19687;SDS011;9993;52.008;4.732;2022-10-28T01:04:46;16.67;;;9.88;;
19687;SDS011;9993;52.008;4.732;2022-10-28T01:07:11;12.65;;;8.73;;
19687;SDS011;9993;52.008;4.732;2022-10-28T01:09:37;15.23;;;9.27;;
19687;SDS011;9993;52.008;4.732;2022-10-28T01:19:43;16.70;;;9.52;;
19687;SDS011;9993;52.008;4.732;2022-10-28T01:45:33;15.27;;;9.75;;
19687;SDS011;9993;52.008;4.732;2022-10-28T01:48:22;19.25;;;10.65;;
19687;SDS011;9993;52.008;4.732;2022-10-28T01:50:56;18.10;;;10.15;;
19687;SDS011;9993;52.008;4.732;2022-10-28T01:53:24;15.43;;;9.40;;
19687;SDS011;9993;52.008;4.732;2022-10-28T01:55:51;17.48;;;10.30;;
19687;SDS011;9993;52.008;4.732;2022-10-28T01:58:19;18.98;;;10.95;;
19687;SDS011;9993;52.008;4.732;2022-10-28T02:00:45;16.30;;;9.63;;
19687;SDS011;9993;52.008;4.732;2022-10-28T02:03:11;16.13;;;10.13;;
19687;SDS011;9993;52.008;4.732;2022-10-28T02:08:16;17.15;;;9.82;;
19687;SDS011;9993;52.008;4.732;2022-10-28T02:10:51;16.08;;;9.52;;
19687;SDS011;9993;52.008;4.732;2022-10-28T02:13:22;19.45;;;9.52;;
19687;SDS011;9993;52.008;4.732;2022-10-28T02:15:58;14.70;;;9.27;;
19687;SDS011;9993;52.008;4.732;2022-10-28T02:20:57;14.75;;;9.82;;
19687;SDS011;9993;52.008;4.732;2022-10-28T02:28:28;15.77;;;9.45;;
19687;SDS011;9993;52.008;4.732;2022-10-28T02:30:56;16.90;;;9.60;;
19687;SDS011;9993;52.008;4.732;2022-10-28T02:33:26;14.05;;;9.00;;
19687;SDS011;9993;52.008;4.732;2022-10-28T02:36:08;15.35;;;10.48;;
19687;SDS011;9993;52.008;4.732;2022-10-28T02:38:37;14.65;;;8.88;;
19687;SDS011;9993;52.008;4.732;2022-10-28T02:41:04;16.13;;;9.30;;
19687;SDS011;9993;52.008;4.732;2022-10-28T02:43:31;17.83;;;9.32;;
19687;SDS011;9993;52.008;4.732;2022-10-28T02:45:58;17.48;;;11.68;;
19687;SDS011;9993;52.008;4.732;2022-10-28T02:54:00;15.70;;;11.20;;
19687;SDS011;9993;52.008;4.732;2022-10-28T02:56:26;15.63;;;9.18;;
19687;SDS011;9993;52.008;4.732;2022-10-28T02:58:52;14.07;;;8.43;;
19687;SDS011;9993;52.008;4.732;2022-10-28T03:01:17;17.07;;;10.13;;
19687;SDS011;9993;52.008;4.732;2022-10-28T03:03:43;14.98;;;9.10;;
19687;SDS011;9993;52.008;4.732;2022-10-28T03:06:08;12.77;;;8.70;;
19687;SDS011;9993;52.008;4.732;2022-10-28T03:08:33;17.53;;;10.50;;
19687;SDS011;9993;52.008;4.732;2022-10-28T03:11:00;15.02;;;8.05;;
19687;SDS011;9993;52.008;4.732;2022-10-28T03:13:25;18.75;;;8.27;;
19687;SDS011;9993;52.008;4.732;2022-10-28T03:15:50;13.38;;;8.18;;
19687;SDS011;9993;52.008;4.732;2022-10-28T03:18:15;15.90;;;8.68;;
19687;SDS011;9993;52.008;4.732;2022-10-28T03:20:40;14.90;;;8.57;;
19687;SDS011;9993;52.008;4.732;2022-10-28T03:23:06;12.27;;;8.45;;
19687;SDS011;9993;52.008;4.732;2022-10-28T03:25:31;14.32;;;7.75;;
19687;SDS011;9993;52.008;4.732;2022-10-28T03:27:56;14.70;;;7.55;;
19687;SDS011;9993;52.008;4.732;2022-10-28T03:30:21;15.38;;;8.13;;
19687;SDS011;9993;52.008;4.732;2022-10-28T03:32:46;13.50;;;8.02;;
19687;SDS011;9993;52.008;4.732;2022-10-28T03:35:12;14.15;;;7.60;;
19687;SDS011;9993;52.008;4.732;2022-10-28T03:37:39;13.65;;;7.95;;
19687;SDS011;9993;52.008;4.732;2022-10-28T03:40:05;11.35;;;7.95;;
19687;SDS011;9993;52.008;4.732;2022-10-28T03:42:31;13.90;;;8.52;;
19687;SDS011;9993;52.008;4.732;2022-10-28T03:44:58;12.75;;;8.48;;
19687;SDS011;9993;52.008;4.732;2022-10-28T03:47:23;17.17;;;9.00;;
19687;SDS011;9993;52.008;4.732;2022-10-28T03:49:48;12.02;;;8.38;;
19687;SDS011;9993;52.008;4.732;2022-10-28T03:52:13;14.35;;;8.35;;
19687;SDS011;9993;52.008;4.732;2022-10-28T03:54:38;13.93;;;8.98;;
19687;SDS011;9993;52.008;4.732;2022-10-28T03:57:04;14.32;;;8.80;;
19687;SDS011;9993;52.008;4.732;2022-10-28T03:59:29;11.52;;;8.20;;
19687;SDS011;9993;52.008;4.732;2022-10-28T04:01:54;14.23;;;8.02;;
19687;SDS011;9993;52.008;4.732;2022-10-28T04:04:19;16.35;;;8.38;;
19687;SDS011;9993;52.008;4.732;2022-10-28T04:06:44;12.48;;;7.25;;
19687;SDS011;9993;52.008;4.732;2022-10-28T04:09:09;13.15;;;8.43;;
19687;SDS011;9993;52.008;4.732;2022-10-28T04:11:35;12.77;;;8.68;;
19687;SDS011;9993;52.008;4.732;2022-10-28T04:14:00;15.20;;;8.75;;
19687;SDS011;9993;52.008;4.732;2022-10-28T04:16:25;13.57;;;8.65;;
19687;SDS011;9993;52.008;4.732;2022-10-28T04:18:50;18.70;;;11.90;;
19687;SDS011;9993;52.008;4.732;2022-10-28T04:21:15;13.73;;;9.25;;
19687;SDS011;9993;52.008;4.732;2022-10-28T04:23:41;14.73;;;9.45;;
19687;SDS011;9993;52.008;4.732;2022-10-28T04:26:06;14.48;;;8.32;;
19687;SDS011;9993;52.008;4.732;2022-10-28T04:28:31;12.23;;;8.63;;
19687;SDS011;9993;52.008;4.732;2022-10-28T04:30:56;17.83;;;10.90;;
19687;SDS011;9993;52.008;4.732;2022-10-28T04:33:22;18.25;;;9.63;;
19687;SDS011;9993;52.008;4.732;2022-10-28T04:35:47;16.57;;;10.70;;
19687;SDS011;9993;52.008;4.732;2022-10-28T04:38:12;21.00;;;9.77;;
19687;SDS011;9993;52.008;4.732;2022-10-28T04:40:38;16.70;;;9.02;;
19687;SDS011;9993;52.008;4.732;2022-10-28T04:43:03;13.63;;;8.80;;
19687;SDS011;9993;52.008;4.732;2022-10-28T04:45:29;13.65;;;8.48;;
19687;SDS011;9993;52.008;4.732;2022-10-28T04:47:58;14.63;;;8.30;;
19687;SDS011;9993;52.008;4.732;2022-10-28T04:50:23;13.57;;;7.72;;
19687;SDS011;9993;52.008;4.732;2022-10-28T04:52:49;12.35;;;8.18;;
19687;SDS011;9993;52.008;4.732;2022-10-28T04:55:14;14.82;;;7.90;;
19687;SDS011;9993;52.008;4.732;2022-10-28T04:57:39;15.00;;;9.05;;
19687;SDS011;9993;52.008;4.732;2022-10-28T05:00:04;18.40;;;8.70;;
19687;SDS011;9993;52.008;4.732;2022-10-28T05:02:30;18.38;;;8.50;;
19687;SDS011;9993;52.008;4.732;2022-10-28T05:04:55;15.45;;;8.05;;
19687;SDS011;9993;52.008;4.732;2022-10-28T05:07:24;18.92;;;8.75;;
19687;SDS011;9993;52.008;4.732;2022-10-28T05:09:49;12.40;;;8.23;;
19687;SDS011;9993;52.008;4.732;2022-10-28T05:12:14;17.67;;;8.30;;
19687;SDS011;9993;52.008;4.732;2022-10-28T05:14:39;11.45;;;8.02;;
19687;SDS011;9993;52.008;4.732;2022-10-28T05:17:04;17.63;;;10.17;;
19687;SDS011;9993;52.008;4.732;2022-10-28T05:19:30;16.52;;;8.82;;
19687;SDS011;9993;52.008;4.732;2022-10-28T05:21:55;14.35;;;9.35;;
19687;SDS011;9993;52.008;4.732;2022-10-28T05:24:20;14.43;;;8.27;;
19687;SDS011;9993;52.008;4.732;2022-10-28T05:26:45;14.30;;;8.23;;
19687;SDS011;9993;52.008;4.732;2022-10-28T05:29:10;15.55;;;8.18;;
19687;SDS011;9993;52.008;4.732;2022-10-28T05:31:36;13.80;;;8.38;;
19687;SDS011;9993;52.008;4.732;2022-10-28T05:34:01;12.82;;;8.60;;
19687;SDS011;9993;52.008;4.732;2022-10-28T05:36:26;14.50;;;8.27;;
19687;SDS011;9993;52.008;4.732;2022-10-28T05:38:51;12.00;;;7.60;;
19687;SDS011;9993;52.008;4.732;2022-10-28T05:41:16;14.82;;;8.88;;
19687;SDS011;9993;52.008;4.732;2022-10-28T05:43:42;13.65;;;7.75;;
19687;SDS011;9993;52.008;4.732;2022-10-28T05:46:07;15.18;;;7.68;;
19687;SDS011;9993;52.008;4.732;2022-10-28T05:48:33;14.77;;;8.25;;
19687;SDS011;9993;52.008;4.732;2022-10-28T05:50:58;13.25;;;7.53;;
19687;SDS011;9993;52.008;4.732;2022-10-28T05:53:23;11.95;;;7.57;;
19687;SDS011;9993;52.008;4.732;2022-10-28T05:55:48;17.03;;;8.80;;
19687;SDS011;9993;52.008;4.732;2022-10-28T05:58:14;12.93;;;8.35;;
19687;SDS011;9993;52.008;4.732;2022-10-28T06:00:39;13.90;;;8.15;;
19687;SDS011;9993;52.008;4.732;2022-10-28T06:03:05;11.07;;;7.57;;
19687;SDS011;9993;52.008;4.732;2022-10-28T06:05:33;11.48;;;7.25;;
19687;SDS011;9993;52.008;4.732;2022-10-28T06:07:58;15.73;;;10.13;;
19687;SDS011;9993;52.008;4.732;2022-10-28T06:10:23;14.65;;;8.10;;
19687;SDS011;9993;52.008;4.732;2022-10-28T06:12:49;15.68;;;10.20;;
19687;SDS011;9993;52.008;4.732;2022-10-28T06:15:14;13.77;;;8.48;;
19687;SDS011;9993;52.008;4.732;2022-10-28T06:17:39;15.98;;;7.70;;
19687;SDS011;9993;52.008;4.732;2022-10-28T06:20:05;10.43;;;7.40;;
19687;SDS011;9993;52.008;4.732;2022-10-28T06:22:30;13.50;;;7.57;;
19687;SDS011;9993;52.008;4.732;2022-10-28T06:24:55;11.02;;;8.27;;
19687;SDS011;9993;52.008;4.732;2022-10-28T06:27:20;11.37;;;6.97;;
19687;SDS011;9993;52.008;4.732;2022-10-28T06:29:45;13.20;;;7.20;;
19687;SDS011;9993;52.008;4.732;2022-10-28T06:32:11;16.00;;;9.43;;
19687;SDS011;9993;52.008;4.732;2022-10-28T06:34:36;18.38;;;8.38;;
19687;SDS011;9993;52.008;4.732;2022-10-28T06:37:03;15.10;;;7.32;;
19687;SDS011;9993;52.008;4.732;2022-10-28T06:39:28;11.87;;;7.40;;
19687;SDS011;9993;52.008;4.732;2022-10-28T06:41:53;12.27;;;7.57;;
19687;SDS011;9993;52.008;4.732;2022-10-28T06:44:18;12.32;;;7.65;;
19687;SDS011;9993;52.008;4.732;2022-10-28T06:46:44;17.53;;;10.23;;
19687;SDS011;9993;52.008;4.732;2022-10-28T06:49:09;13.82;;;7.95;;
19687;SDS011;9993;52.008;4.732;2022-10-28T06:51:34;15.17;;;9.20;;
19687;SDS011;9993;52.008;4.732;2022-10-28T06:53:59;18.57;;;10.13;;
19687;SDS011;9993;52.008;4.732;2022-10-28T06:56:25;17.58;;;9.95;;
19687;SDS011;9993;52.008;4.732;2022-10-28T06:58:50;12.48;;;8.35;;
19687;SDS011;9993;52.008;4.732;2022-10-28T07:01:16;15.63;;;9.67;;
19687;SDS011;9993;52.008;4.732;2022-10-28T07:03:41;11.90;;;7.43;;
19687;SDS011;9993;52.008;4.732;2022-10-28T07:06:06;14.48;;;6.53;;
19687;SDS011;9993;52.008;4.732;2022-10-28T07:08:31;11.25;;;7.65;;
19687;SDS011;9993;52.008;4.732;2022-10-28T07:10:57;13.40;;;8.90;;
19687;SDS011;9993;52.008;4.732;2022-10-28T07:13:23;13.15;;;8.90;;
19687;SDS011;9993;52.008;4.732;2022-10-28T07:15:50;11.27;;;7.03;;
19687;SDS011;9993;52.008;4.732;2022-10-28T07:18:15;10.35;;;6.68;;
19687;SDS011;9993;52.008;4.732;2022-10-28T07:20:40;10.55;;;6.80;;
19687;SDS011;9993;52.008;4.732;2022-10-28T07:23:06;18.27;;;9.23;;
19687;SDS011;9993;52.008;4.732;2022-10-28T07:25:32;12.90;;;7.25;;
19687;SDS011;9993;52.008;4.732;2022-10-28T07:27:57;9.40;;;6.32;;
19687;SDS011;9993;52.008;4.732;2022-10-28T07:30:22;9.93;;;6.18;;
19687;SDS011;9993;52.008;4.732;2022-10-28T07:32:47;9.63;;;6.40;;
19687;SDS011;9993;52.008;4.732;2022-10-28T07:35:13;11.10;;;6.47;;
19687;SDS011;9993;52.008;4.732;2022-10-28T07:37:38;9.45;;;6.28;;
19687;SDS011;9993;52.008;4.732;2022-10-28T07:40:04;9.80;;;6.88;;
19687;SDS011;9993;52.008;4.732;2022-10-28T07:42:29;11.15;;;7.05;;
19687;SDS011;9993;52.008;4.732;2022-10-28T07:44:54;13.43;;;7.03;;
19687;SDS011;9993;52.008;4.732;2022-10-28T07:47:19;13.93;;;6.80;;
19687;SDS011;9993;52.008;4.732;2022-10-28T07:49:46;11.40;;;7.60;;
19687;SDS011;9993;52.008;4.732;2022-10-28T07:52:11;12.88;;;7.15;;
19687;SDS011;9993;52.008;4.732;2022-10-28T07:54:36;10.98;;;7.75;;
19687;SDS011;9993;52.008;4.732;2022-10-28T07:57:01;11.70;;;6.38;;
19687;SDS011;9993;52.008;4.732;2022-10-28T07:59:26;11.07;;;7.32;;
19687;SDS011;9993;52.008;4.732;2022-10-28T08:01:52;12.00;;;6.72;;
19687;SDS011;9993;52.008;4.732;2022-10-28T08:04:17;13.27;;;6.97;;
19687;SDS011;9993;52.008;4.732;2022-10-28T08:06:42;11.73;;;7.10;;
19687;SDS011;9993;52.008;4.732;2022-10-28T08:09:08;12.07;;;6.82;;
19687;SDS011;9993;52.008;4.732;2022-10-28T08:11:33;12.50;;;6.80;;
19687;SDS011;9993;52.008;4.732;2022-10-28T08:14:00;11.07;;;6.32;;
19687;SDS011;9993;52.008;4.732;2022-10-28T08:16:25;10.57;;;6.72;;
19687;SDS011;9993;52.008;4.732;2022-10-28T08:18:52;10.30;;;6.80;;
19687;SDS011;9993;52.008;4.732;2022-10-28T08:21:18;11.63;;;6.00;;
19687;SDS011;9993;52.008;4.732;2022-10-28T08:23:43;15.73;;;6.95;;
19687;SDS011;9993;52.008;4.732;2022-10-28T08:26:10;9.15;;;7.15;;
19687;SDS011;9993;52.008;4.732;2022-10-28T08:28:35;14.10;;;7.22;;
19687;SDS011;9993;52.008;4.732;2022-10-28T08:31:01;12.90;;;7.55;;
19687;SDS011;9993;52.008;4.732;2022-10-28T08:33:27;10.93;;;6.70;;
19687;SDS011;9993;52.008;4.732;2022-10-28T08:35:52;11.65;;;6.82;;
19687;SDS011;9993;52.008;4.732;2022-10-28T08:38:18;12.02;;;6.47;;
19687;SDS011;9993;52.008;4.732;2022-10-28T08:43:14;13.60;;;6.67;;
19687;SDS011;9993;52.008;4.732;2022-10-28T08:45:48;9.93;;;6.50;;
19687;SDS011;9993;52.008;4.732;2022-10-28T08:48:32;14.50;;;6.57;;
19687;SDS011;9993;52.008;4.732;2022-10-28T08:51:10;10.43;;;6.65;;
19687;SDS011;9993;52.008;4.732;2022-10-28T08:53:39;11.70;;;6.78;;
19687;SDS011;9993;52.008;4.732;2022-10-28T08:56:09;13.40;;;7.65;;
19687;SDS011;9993;52.008;4.732;2022-10-28T08:58:38;14.00;;;6.45;;
19687;SDS011;9993;52.008;4.732;2022-10-28T09:01:04;12.82;;;6.57;;
19687;SDS011;9993;52.008;4.732;2022-10-28T09:03:36;8.25;;;5.82;;
19687;SDS011;9993;52.008;4.732;2022-10-28T09:06:03;10.35;;;6.68;;
19687;SDS011;9993;52.008;4.732;2022-10-28T09:08:32;9.82;;;5.85;;
19687;SDS011;9993;52.008;4.732;2022-10-28T09:11:04;12.65;;;6.10;;
19687;SDS011;9993;52.008;4.732;2022-10-28T09:18:43;9.07;;;5.93;;
19687;SDS011;9993;52.008;4.732;2022-10-28T09:23:54;12.52;;;6.70;;
19687;SDS011;9993;52.008;4.732;2022-10-28T09:26:56;12.45;;;6.38;;
19687;SDS011;9993;52.008;4.732;2022-10-28T09:31:47;9.52;;;6.15;;
19687;SDS011;9993;52.008;4.732;2022-10-28T09:36:59;9.43;;;5.75;;
19687;SDS011;9993;52.008;4.732;2022-10-28T09:39:27;10.68;;;6.10;;
19687;SDS011;9993;52.008;4.732;2022-10-28T09:41:53;22.02;;;6.43;;
19687;SDS011;9993;52.008;4.732;2022-10-28T09:46:58;9.35;;;5.43;;
19687;SDS011;9993;52.008;4.732;2022-10-28T09:49:26;12.93;;;6.03;;
19687;SDS011;9993;52.008;4.732;2022-10-28T09:52:08;11.02;;;5.38;;
19687;SDS011;9993;52.008;4.732;2022-10-28T09:54:36;9.45;;;6.00;;
19687;SDS011;9993;52.008;4.732;2022-10-28T09:57:03;9.98;;;5.55;;
19687;SDS011;9993;52.008;4.732;2022-10-28T09:59:28;9.05;;;6.18;;
19687;SDS011;9993;52.008;4.732;2022-10-28T10:01:54;12.30;;;5.80;;
19687;SDS011;9993;52.008;4.732;2022-10-28T10:04:20;9.15;;;5.93;;
19687;SDS011;9993;52.008;4.732;2022-10-28T10:06:46;16.67;;;5.95;;
19687;SDS011;9993;52.008;4.732;2022-10-28T10:09:14;15.27;;;6.68;;
19687;SDS011;9993;52.008;4.732;2022-10-28T10:11:45;10.50;;;6.50;;
19687;SDS011;9993;52.008;4.732;2022-10-28T10:14:14;13.40;;;6.00;;
19687;SDS011;9993;52.008;4.732;2022-10-28T10:16:41;12.90;;;5.18;;
19687;SDS011;9993;52.008;4.732;2022-10-28T10:19:09;11.05;;;5.93;;
19687;SDS011;9993;52.008;4.732;2022-10-28T10:21:39;11.90;;;6.20;;
19687;SDS011;9993;52.008;4.732;2022-10-28T10:24:28;11.73;;;5.78;;
19687;SDS011;9993;52.008;4.732;2022-10-28T10:26:50;12.82;;;6.78;;
19687;SDS011;9993;52.008;4.732;2022-10-28T10:29:16;8.43;;;5.57;;
19687;SDS011;9993;52.008;4.732;2022-10-28T10:31:41;11.25;;;5.85;;
19687;SDS011;9993;52.008;4.732;2022-10-28T10:34:13;11.68;;;5.40;;
19687;SDS011;9993;52.008;4.732;2022-10-28T10:36:46;12.13;;;5.45;;
19687;SDS011;9993;52.008;4.732;2022-10-28T10:39:22;11.35;;;5.18;;
19687;SDS011;9993;52.008;4.732;2022-10-28T10:41:50;12.13;;;5.75;;
19687;SDS011;9993;52.008;4.732;2022-10-28T10:49:17;10.23;;;5.50;;
19687;SDS011;9993;52.008;4.732;2022-10-28T10:51:55;7.65;;;5.00;;
19687;SDS011;9993;52.008;4.732;2022-10-28T10:54:21;11.73;;;5.30;;
19687;SDS011;9993;52.008;4.732;2022-10-28T10:56:47;12.73;;;5.68;;
19687;SDS011;9993;52.008;4.732;2022-10-28T10:59:30;8.50;;;4.60;;
19687;SDS011;9993;52.008;4.732;2022-10-28T11:01:56;8.57;;;5.22;;
19687;SDS011;9993;52.008;4.732;2022-10-28T11:04:22;7.47;;;4.93;;
19687;SDS011;9993;52.008;4.732;2022-10-28T11:06:49;8.52;;;5.32;;
19687;SDS011;9993;52.008;4.732;2022-10-28T11:09:57;9.68;;;5.40;;
19687;SDS011;9993;52.008;4.732;2022-10-28T11:14:57;11.18;;;5.25;;
19687;SDS011;9993;52.008;4.732;2022-10-28T11:17:27;10.35;;;4.88;;
19687;SDS011;9993;52.008;4.732;2022-10-28T11:19:53;11.52;;;4.75;;
19687;SDS011;9993;52.008;4.732;2022-10-28T11:25:14;10.15;;;5.45;;
19687;SDS011;9993;52.008;4.732;2022-10-28T11:30:12;8.17;;;4.37;;
19687;SDS011;9993;52.008;4.732;2022-10-28T11:45:37;11.40;;;4.53;;
19687;SDS011;9993;52.008;4.732;2022-10-28T11:55:46;7.53;;;4.05;;
19687;SDS011;9993;52.008;4.732;2022-10-28T12:14:29;10.85;;;4.35;;
19687;SDS011;9993;52.008;4.732;2022-10-28T12:19:24;6.60;;;3.90;;
19687;SDS011;9993;52.008;4.732;2022-10-28T12:22:09;7.30;;;3.78;;
19687;SDS011;9993;52.008;4.732;2022-10-28T12:24:36;11.52;;;4.45;;
19687;SDS011;9993;52.008;4.732;2022-10-28T12:27:06;11.40;;;3.95;;
19687;SDS011;9993;52.008;4.732;2022-10-28T12:29:36;10.05;;;4.35;;
19687;SDS011;9993;52.008;4.732;2022-10-28T12:32:09;9.25;;;4.15;;
19687;SDS011;9993;52.008;4.732;2022-10-28T12:34:37;7.18;;;3.90;;
19687;SDS011;9993;52.008;4.732;2022-10-28T12:37:07;8.90;;;3.92;;
19687;SDS011;9993;52.008;4.732;2022-10-28T12:39:33;11.20;;;4.60;;
19687;SDS011;9993;52.008;4.732;2022-10-28T12:42:15;10.55;;;4.13;;
19687;SDS011;9993;52.008;4.732;2022-10-28T12:44:42;10.50;;;4.43;;
19687;SDS011;9993;52.008;4.732;2022-10-28T12:47:13;9.15;;;4.32;;
19687;SDS011;9993;52.008;4.732;2022-10-28T12:49:48;9.38;;;5.00;;
19687;SDS011;9993;52.008;4.732;2022-10-28T12:55:02;9.98;;;4.25;;
19687;SDS011;9993;52.008;4.732;2022-10-28T12:57:31;7.40;;;4.68;;
19687;SDS011;9993;52.008;4.732;2022-10-28T13:02:30;11.18;;;4.72;;
19687;SDS011;9993;52.008;4.732;2022-10-28T13:04:56;10.27;;;3.83;;
19687;SDS011;9993;52.008;4.732;2022-10-28T13:07:35;12.90;;;4.10;;
19687;SDS011;9993;52.008;4.732;2022-10-28T13:10:07;12.75;;;4.30;;
19687;SDS011;9993;52.008;4.732;2022-10-28T13:28:33;11.85;;;4.45;;
19687;SDS011;9993;52.008;4.732;2022-10-28T13:31:00;9.38;;;3.97;;
19687;SDS011;9993;52.008;4.732;2022-10-28T13:33:27;8.68;;;3.90;;
19687;SDS011;9993;52.008;4.732;2022-10-28T13:35:53;9.07;;;3.70;;
19687;SDS011;9993;52.008;4.732;2022-10-28T13:38:21;9.90;;;4.10;;
19687;SDS011;9993;52.008;4.732;2022-10-28T13:43:19;8.10;;;3.85;;
19687;SDS011;9993;52.008;4.732;2022-10-28T13:51:24;11.25;;;4.22;;
19687;SDS011;9993;52.008;4.732;2022-10-28T13:56:09;7.10;;;3.33;;
19687;SDS011;9993;52.008;4.732;2022-10-28T13:58:35;8.70;;;3.45;;
19687;SDS011;9993;52.008;4.732;2022-10-28T14:01:34;5.72;;;3.10;;
19687;SDS011;9993;52.008;4.732;2022-10-28T14:03:50;8.68;;;3.55;;
19687;SDS011;9993;52.008;4.732;2022-10-28T14:06:27;6.63;;;3.47;;
19687;SDS011;9993;52.008;4.732;2022-10-28T14:08:54;9.48;;;3.72;;
19687;SDS011;9993;52.008;4.732;2022-10-28T14:11:23;6.50;;;3.10;;
19687;SDS011;9993;52.008;4.732;2022-10-28T14:13:58;6.20;;;3.03;;
19687;SDS011;9993;52.008;4.732;2022-10-28T14:16:26;10.07;;;3.17;;
19687;SDS011;9993;52.008;4.732;2022-10-28T14:21:24;9.38;;;3.72;;
19687;SDS011;9993;52.008;4.732;2022-10-28T14:24:06;6.93;;;3.28;;
19687;SDS011;9993;52.008;4.732;2022-10-28T14:26:51;9.35;;;3.55;;
19687;SDS011;9993;52.008;4.732;2022-10-28T14:29:26;6.65;;;3.10;;
19687;SDS011;9993;52.008;4.732;2022-10-28T14:31:51;10.02;;;3.63;;
19687;SDS011;9993;52.008;4.732;2022-10-28T14:36:53;12.15;;;3.70;;
19687;SDS011;9993;52.008;4.732;2022-10-28T14:39:33;10.38;;;3.83;;
19687;SDS011;9993;52.008;4.732;2022-10-28T14:49:37;8.77;;;3.00;;
19687;SDS011;9993;52.008;4.732;2022-10-28T14:52:09;9.23;;;3.10;;
19687;SDS011;9993;52.008;4.732;2022-10-28T14:54:43;8.75;;;4.43;;
19687;SDS011;9993;52.008;4.732;2022-10-28T14:57:11;6.70;;;3.30;;
19687;SDS011;9993;52.008;4.732;2022-10-28T14:59:37;10.98;;;3.67;;
19687;SDS011;9993;52.008;4.732;2022-10-28T15:02:13;11.57;;;3.90;;
19687;SDS011;9993;52.008;4.732;2022-10-28T15:04:40;6.43;;;3.80;;
19687;SDS011;9993;52.008;4.732;2022-10-28T15:07:13;10.38;;;3.60;;
19687;SDS011;9993;52.008;4.732;2022-10-28T15:09:38;7.45;;;3.53;;
19687;SDS011;9993;52.008;4.732;2022-10-28T15:12:05;6.90;;;3.38;;
19687;SDS011;9993;52.008;4.732;2022-10-28T15:14:32;5.30;;;3.25;;
19687;SDS011;9993;52.008;4.732;2022-10-28T15:16:58;8.07;;;3.15;;
19687;SDS011;9993;52.008;4.732;2022-10-28T15:19:25;4.60;;;2.83;;
19687;SDS011;9993;52.008;4.732;2022-10-28T15:22:01;12.07;;;3.13;;
19687;SDS011;9993;52.008;4.732;2022-10-28T15:24:26;5.45;;;2.60;;
19687;SDS011;9993;52.008;4.732;2022-10-28T15:26:52;3.42;;;2.85;;
19687;SDS011;9993;52.008;4.732;2022-10-28T15:29:18;6.82;;;3.10;;
19687;SDS011;9993;52.008;4.732;2022-10-28T15:34:28;5.85;;;3.13;;
19687;SDS011;9993;52.008;4.732;2022-10-28T15:36:53;6.68;;;3.20;;
19687;SDS011;9993;52.008;4.732;2022-10-28T15:39:18;5.82;;;3.15;;
19687;SDS011;9993;52.008;4.732;2022-10-28T15:41:46;6.60;;;3.08;;
19687;SDS011;9993;52.008;4.732;2022-10-28T15:46:47;8.93;;;3.65;;
19687;SDS011;9993;52.008;4.732;2022-10-28T15:49:19;9.25;;;3.30;;
19687;SDS011;9993;52.008;4.732;2022-10-28T15:52:18;10.25;;;3.25;;
19687;SDS011;9993;52.008;4.732;2022-10-28T15:57:19;7.60;;;3.08;;
19687;SDS011;9993;52.008;4.732;2022-10-28T15:59:45;7.82;;;3.67;;
19687;SDS011;9993;52.008;4.732;2022-10-28T16:04:54;7.57;;;3.72;;
19687;SDS011;9993;52.008;4.732;2022-10-28T16:07:19;8.43;;;3.58;;
19687;SDS011;9993;52.008;4.732;2022-10-28T16:09:47;7.70;;;3.92;;
19687;SDS011;9993;52.008;4.732;2022-10-28T16:12:23;7.63;;;3.63;;
19687;SDS011;9993;52.008;4.732;2022-10-28T16:14:59;11.48;;;4.25;;
19687;SDS011;9993;52.008;4.732;2022-10-28T16:17:26;8.63;;;3.72;;
19687;SDS011;9993;52.008;4.732;2022-10-28T16:20:14;9.98;;;3.88;;
19687;SDS011;9993;52.008;4.732;2022-10-28T16:22:38;9.30;;;3.97;;
19687;SDS011;9993;52.008;4.732;2022-10-28T16:25:04;11.75;;;4.43;;
19687;SDS011;9993;52.008;4.732;2022-10-28T16:27:35;8.73;;;4.03;;
19687;SDS011;9993;52.008;4.732;2022-10-28T16:30:00;9.85;;;3.90;;
19687;SDS011;9993;52.008;4.732;2022-10-28T16:32:27;15.10;;;4.05;;
19687;SDS011;9993;52.008;4.732;2022-10-28T16:34:52;12.48;;;4.47;;
19687;SDS011;9993;52.008;4.732;2022-10-28T16:37:23;8.45;;;4.13;;
19687;SDS011;9993;52.008;4.732;2022-10-28T16:39:49;13.27;;;4.65;;
19687;SDS011;9993;52.008;4.732;2022-10-28T16:42:15;10.60;;;4.28;;
19687;SDS011;9993;52.008;4.732;2022-10-28T16:44:40;10.95;;;3.95;;
19687;SDS011;9993;52.008;4.732;2022-10-28T16:47:12;8.18;;;4.22;;
19687;SDS011;9993;52.008;4.732;2022-10-28T16:49:39;8.82;;;4.00;;
19687;SDS011;9993;52.008;4.732;2022-10-28T16:52:04;9.50;;;3.92;;
19687;SDS011;9993;52.008;4.732;2022-10-28T16:54:29;14.35;;;4.38;;
19687;SDS011;9993;52.008;4.732;2022-10-28T16:56:55;14.93;;;3.80;;
19687;SDS011;9993;52.008;4.732;2022-10-28T16:59:21;12.98;;;4.40;;
19687;SDS011;9993;52.008;4.732;2022-10-28T17:01:46;13.07;;;4.32;;
19687;SDS011;9993;52.008;4.732;2022-10-28T17:04:11;20.80;;;4.38;;
19687;SDS011;9993;52.008;4.732;2022-10-28T17:06:36;11.32;;;4.53;;
19687;SDS011;9993;52.008;4.732;2022-10-28T17:09:01;13.80;;;4.00;;
19687;SDS011;9993;52.008;4.732;2022-10-28T17:11:27;14.00;;;4.20;;
19687;SDS011;9993;52.008;4.732;2022-10-28T17:13:52;13.10;;;4.18;;
19687;SDS011;9993;52.008;4.732;2022-10-28T17:16:17;7.18;;;3.47;;
19687;SDS011;9993;52.008;4.732;2022-10-28T17:18:42;13.93;;;4.32;;
19687;SDS011;9993;52.008;4.732;2022-10-28T17:21:08;11.20;;;4.18;;
19687;SDS011;9993;52.008;4.732;2022-10-28T17:23:33;8.75;;;4.22;;
19687;SDS011;9993;52.008;4.732;2022-10-28T17:25:59;8.90;;;3.88;;
19687;SDS011;9993;52.008;4.732;2022-10-28T17:28:24;11.60;;;4.13;;
19687;SDS011;9993;52.008;4.732;2022-10-28T17:30:50;10.55;;;4.43;;
19687;SDS011;9993;52.008;4.732;2022-10-28T17:33:15;10.50;;;3.60;;
19687;SDS011;9993;52.008;4.732;2022-10-28T17:35:40;8.80;;;3.33;;
19687;SDS011;9993;52.008;4.732;2022-10-28T17:38:05;8.05;;;3.22;;
19687;SDS011;9993;52.008;4.732;2022-10-28T17:40:30;10.65;;;3.55;;
19687;SDS011;9993;52.008;4.732;2022-10-28T17:42:59;13.30;;;3.88;;
19687;SDS011;9993;52.008;4.732;2022-10-28T17:45:24;11.27;;;3.88;;
19687;SDS011;9993;52.008;4.732;2022-10-28T17:47:49;7.03;;;3.03;;
19687;SDS011;9993;52.008;4.732;2022-10-28T17:50:15;9.30;;;4.32;;